createdAt,value
2018-06-30T00:01:14.515Z,4.00
2018-06-30T00:07:00.544Z,4.60
2018-06-30T00:09:29.138Z,4.00
2018-06-30T00:11:57.713Z,4.70
2018-06-30T00:14:26.600Z,4.80
2018-06-30T00:17:05.093Z,3.73
2018-06-30T00:19:33.607Z,3.90
2018-06-30T00:22:03.230Z,3.60
2018-06-30T00:24:31.796Z,4.20
2018-06-30T00:27:05.528Z,4.07
2018-06-30T00:29:34.536Z,3.37
2018-06-30T00:32:03.825Z,3.90
2018-06-30T00:34:38.861Z,3.70
2018-06-30T00:37:07.412Z,4.10
2018-06-30T00:39:35.963Z,3.97
2018-06-30T00:42:06.216Z,3.60
2018-06-30T00:44:34.724Z,4.30
2018-06-30T00:47:03.227Z,4.10
2018-06-30T00:52:11.044Z,3.90
2018-06-30T00:57:13.044Z,3.53
2018-06-30T00:59:41.582Z,3.90
2018-06-30T01:02:12.215Z,3.70
2018-06-30T01:04:40.711Z,4.60
2018-06-30T01:07:09.705Z,3.70
2018-06-30T01:09:38.228Z,3.40
2018-06-30T01:12:08.165Z,3.30
2018-06-30T01:14:36.960Z,3.83
2018-06-30T01:19:38.794Z,3.73
2018-06-30T01:22:11.207Z,3.87
2018-06-30T01:24:39.755Z,3.60
2018-06-30T01:27:14.686Z,4.00
2018-06-30T01:29:43.994Z,4.10
2018-06-30T01:32:12.567Z,4.10
2018-06-30T01:34:42.890Z,3.33
2018-06-30T01:37:11.375Z,3.67
2018-06-30T01:39:39.946Z,3.20
2018-06-30T01:42:08.435Z,3.50
2018-06-30T01:44:37.368Z,3.00
2018-06-30T01:47:05.902Z,3.00
2018-06-30T01:49:34.399Z,3.30
2018-06-30T01:52:09.228Z,3.33
2018-06-30T01:54:37.759Z,3.00
2018-06-30T01:57:06.796Z,2.40
2018-06-30T01:59:35.492Z,3.10
2018-06-30T02:02:04.753Z,3.00
2018-06-30T02:04:33.299Z,3.23
2018-06-30T02:07:12.729Z,3.10
2018-06-30T02:09:41.588Z,3.57
2018-06-30T02:12:10.630Z,3.80
2018-06-30T02:14:39.495Z,3.07
2018-06-30T02:17:08.379Z,3.33
2018-06-30T02:19:36.865Z,3.03
2018-06-30T02:22:05.399Z,3.50
2018-06-30T02:24:34.420Z,3.50
2018-06-30T02:27:02.972Z,3.27
2018-06-30T02:29:37.261Z,3.23
2018-06-30T02:32:06.255Z,3.00
2018-06-30T02:34:34.736Z,3.23
2018-06-30T02:37:03.753Z,3.23
2018-06-30T02:39:32.232Z,3.10
2018-06-30T02:42:11.554Z,3.03
2018-06-30T02:44:40.457Z,3.20
2018-06-30T02:47:08.964Z,4.20
2018-06-30T02:49:37.626Z,2.87
2018-06-30T02:52:06.623Z,3.10
2018-06-30T02:54:35.224Z,2.83
2018-06-30T02:57:03.789Z,3.10
2018-06-30T02:59:32.648Z,2.93
2018-06-30T03:02:01.845Z,3.07
2018-06-30T03:04:30.392Z,2.80
2018-06-30T03:06:59.316Z,2.80
2018-06-30T03:09:38.662Z,2.77
2018-06-30T03:12:07.192Z,2.90
2018-06-30T03:14:39.175Z,3.20
2018-06-30T03:17:07.680Z,2.70
2018-06-30T03:19:36.663Z,3.00
2018-06-30T03:22:05.259Z,3.03
2018-06-30T03:24:34.376Z,2.90
2018-06-30T03:27:03.300Z,3.60
2018-06-30T03:29:31.808Z,3.00
2018-06-30T03:32:00.289Z,3.30
2018-06-30T03:34:34.648Z,2.77
2018-06-30T03:37:03.288Z,3.00
2018-06-30T03:39:31.743Z,3.10
2018-06-30T03:42:00.524Z,3.37
2018-06-30T03:44:29.060Z,3.60
2018-06-30T03:46:57.569Z,3.87
2018-06-30T03:49:26.399Z,3.27
2018-06-30T03:51:55.140Z,3.30
2018-06-30T03:54:23.595Z,3.00
2018-06-30T03:56:57.704Z,3.93
2018-06-30T03:59:26.196Z,2.97
2018-06-30T04:01:54.740Z,3.40
2018-06-30T04:04:34.942Z,3.13
2018-06-30T04:07:03.469Z,2.87
2018-06-30T04:09:32.290Z,3.20
2018-06-30T04:12:00.830Z,2.90
2018-06-30T04:14:29.309Z,3.57
2018-06-30T04:17:03.152Z,3.07
2018-06-30T04:19:31.632Z,2.73
2018-06-30T04:22:03.366Z,3.40
2018-06-30T04:24:32.239Z,3.03
2018-06-30T04:27:00.728Z,2.77
2018-06-30T04:29:29.217Z,2.60
2018-06-30T04:31:58.149Z,2.60
2018-06-30T04:34:26.616Z,3.20
2018-06-30T04:36:55.109Z,2.80
2018-06-30T04:42:04.340Z,2.90
2018-06-30T04:44:33.300Z,3.67
2018-06-30T04:47:01.825Z,2.97
2018-06-30T04:49:30.343Z,2.60
2018-06-30T04:51:59.253Z,3.60
2018-06-30T04:54:28.803Z,3.20
2018-06-30T04:56:57.353Z,2.90
2018-06-30T04:59:26.239Z,3.10
2018-06-30T05:01:57.864Z,3.37
2018-06-30T05:04:26.367Z,2.63
2018-06-30T05:06:55.157Z,3.50
2018-06-30T05:09:23.679Z,3.67
2018-06-30T05:11:52.156Z,3.00
2018-06-30T05:14:20.936Z,3.53
2018-06-30T05:16:49.391Z,3.60
2018-06-30T05:19:17.906Z,3.10
2018-06-30T05:21:49.833Z,3.30
2018-06-30T05:24:18.356Z,9.30
2018-06-30T05:26:46.882Z,3.77
2018-06-30T05:29:15.459Z,3.30
2018-06-30T05:31:46.063Z,3.23
2018-06-30T05:34:14.664Z,2.60
2018-06-30T05:39:05.864Z,2.97
2018-06-30T05:41:34.471Z,3.80
2018-06-30T05:44:04.170Z,3.27
2018-06-30T05:46:38.979Z,3.63
2018-06-30T05:49:13.405Z,3.90
2018-06-30T05:51:41.949Z,4.07
2018-06-30T05:54:10.873Z,3.30
2018-06-30T05:56:39.464Z,2.97
2018-06-30T05:59:07.976Z,3.13
2018-06-30T06:01:36.932Z,4.13
2018-06-30T06:04:06.196Z,3.20
2018-06-30T06:06:34.955Z,3.50
2018-06-30T06:09:06.017Z,3.40
2018-06-30T06:11:34.603Z,3.10
2018-06-30T06:14:03.928Z,3.27
2018-06-30T06:16:32.857Z,3.20
2018-06-30T06:19:01.376Z,3.00
2018-06-30T06:21:29.893Z,3.40
2018-06-30T06:23:58.708Z,6.00
2018-06-30T06:26:27.176Z,4.33
2018-06-30T06:28:55.755Z,3.40
2018-06-30T06:31:24.963Z,4.07
2018-06-30T06:33:53.467Z,4.43
2018-06-30T06:36:21.981Z,4.40
2018-06-30T06:38:50.920Z,4.10
2018-06-30T06:41:19.472Z,3.10
2018-06-30T06:43:48.004Z,2.83
2018-06-30T06:46:17.303Z,2.83
2018-06-30T06:48:45.787Z,3.17
2018-06-30T06:51:14.234Z,3.60
2018-06-30T06:53:43.880Z,3.30
2018-06-30T06:56:12.386Z,3.03
2018-06-30T06:58:40.959Z,3.83
2018-06-30T07:01:09.920Z,3.83
2018-06-30T07:03:38.412Z,3.73
2018-06-30T07:06:06.924Z,4.20
2018-06-30T07:08:35.794Z,2.87
2018-06-30T07:11:04.381Z,3.57
2018-06-30T07:13:34.439Z,3.10
2018-06-30T07:16:03.911Z,2.80
2018-06-30T07:18:32.485Z,3.80
2018-06-30T07:21:00.972Z,3.07
2018-06-30T07:23:29.965Z,3.00
2018-06-30T07:26:28.908Z,2.53
2018-06-30T07:28:58.260Z,4.43
2018-06-30T07:31:27.623Z,3.13
2018-06-30T07:33:56.203Z,3.33
2018-06-30T07:36:25.173Z,3.40
2018-06-30T07:38:53.700Z,3.27
2018-06-30T07:41:22.304Z,3.30
2018-06-30T07:43:51.091Z,3.10
2018-06-30T07:46:19.659Z,2.80
2018-06-30T07:48:48.185Z,3.00
2018-06-30T07:51:19.320Z,3.23
2018-06-30T07:53:47.986Z,3.13
2018-06-30T07:56:16.572Z,3.73
2018-06-30T07:58:45.516Z,2.73
2018-06-30T08:01:20.775Z,3.40
2018-06-30T08:03:49.323Z,2.90
2018-06-30T08:06:17.820Z,3.10
2018-06-30T08:08:46.736Z,3.10
2018-06-30T08:11:19.586Z,3.50
2018-06-30T08:13:48.085Z,2.67
2018-06-30T08:16:16.636Z,3.20
2018-06-30T08:18:45.531Z,3.50
2018-06-30T08:21:14.159Z,3.80
2018-06-30T08:23:42.689Z,3.10
2018-06-30T08:26:11.691Z,3.47
2018-06-30T08:28:40.212Z,3.07
2018-06-30T08:31:08.752Z,3.40
2018-06-30T08:33:37.544Z,3.07
2018-06-30T08:36:06.464Z,3.70
2018-06-30T08:38:35.004Z,3.53
2018-06-30T08:41:03.927Z,4.10
2018-06-30T08:43:33.596Z,3.53
2018-06-30T08:46:04.292Z,3.60
2018-06-30T08:48:33.303Z,4.10
2018-06-30T08:51:01.888Z,3.37
2018-06-30T08:53:30.472Z,4.60
2018-06-30T08:55:59.413Z,4.20
2018-06-30T08:58:27.950Z,3.83
2018-06-30T09:01:10.973Z,3.73
2018-06-30T09:03:39.891Z,4.70
2018-06-30T09:06:08.345Z,4.10
2018-06-30T09:08:36.927Z,3.70
2018-06-30T09:11:05.717Z,4.23
2018-06-30T09:13:39.359Z,3.57
2018-06-30T09:16:08.015Z,3.50
2018-06-30T09:18:36.991Z,3.67
2018-06-30T09:21:05.606Z,3.53
2018-06-30T09:23:34.110Z,3.03
2018-06-30T09:26:05.441Z,3.87
2018-06-30T09:28:33.960Z,3.43
2018-06-30T09:31:02.532Z,3.70
2018-06-30T09:33:34.631Z,3.40
2018-06-30T09:36:04.639Z,3.50
2018-06-30T09:38:34.603Z,3.40
2018-06-30T09:41:03.549Z,4.53
2018-06-30T09:43:32.103Z,4.00
2018-06-30T09:46:00.616Z,3.23
2018-06-30T09:48:29.579Z,3.43
2018-06-30T09:50:58.126Z,3.73
2018-06-30T09:53:26.667Z,3.67
2018-06-30T09:55:55.655Z,3.90
2018-06-30T09:58:24.184Z,3.60
2018-06-30T10:00:58.262Z,4.30
2018-06-30T10:03:32.840Z,3.90
2018-06-30T10:06:03.128Z,4.37
2018-06-30T10:08:31.692Z,3.60
2018-06-30T10:11:00.539Z,3.80
2018-06-30T10:13:29.093Z,3.70
2018-06-30T10:15:57.604Z,3.20
2018-06-30T10:18:26.564Z,3.20
2018-06-30T10:20:55.149Z,3.50
2018-06-30T10:23:26.942Z,3.03
2018-06-30T10:25:55.898Z,3.40
2018-06-30T10:28:24.450Z,3.83
2018-06-30T10:30:52.981Z,3.13
2018-06-30T10:33:32.549Z,4.13
2018-06-30T10:36:01.170Z,3.10
2018-06-30T10:38:29.664Z,3.03
2018-06-30T10:40:58.257Z,3.20
2018-06-30T10:45:59.195Z,3.03
2018-06-30T10:48:27.811Z,2.90
2018-06-30T10:50:56.346Z,4.10
2018-06-30T10:53:25.488Z,4.37
2018-06-30T10:55:57.969Z,3.40
2018-06-30T10:58:38.224Z,3.23
2018-06-30T11:01:07.537Z,3.10
2018-06-30T11:03:37.734Z,2.90
2018-06-30T11:06:06.399Z,2.90
2018-06-30T11:08:36.355Z,5.07
2018-06-30T11:11:05.075Z,4.40
2018-06-30T11:13:33.838Z,3.90
2018-06-30T11:16:03.168Z,4.20
2018-06-30T11:18:32.803Z,3.33
2018-06-30T11:21:01.286Z,3.17
2018-06-30T11:23:34.949Z,3.30
2018-06-30T11:26:05.788Z,3.10
2018-06-30T11:28:34.292Z,2.57
2018-06-30T11:31:02.821Z,2.40
2018-06-30T11:33:32.458Z,3.20
2018-06-30T11:36:00.976Z,3.90
2018-06-30T11:38:29.488Z,4.03
2018-06-30T11:40:59.309Z,3.47
2018-06-30T11:43:28.216Z,2.57
2018-06-30T11:46:03.807Z,2.90
2018-06-30T11:48:32.343Z,2.97
2018-06-30T11:51:06.911Z,3.80
2018-06-30T11:53:35.424Z,3.43
2018-06-30T11:56:04.778Z,4.83
2018-06-30T11:58:33.909Z,3.53
2018-06-30T12:01:03.428Z,2.73
2018-06-30T12:03:32.291Z,4.00
2018-06-30T12:06:01.051Z,3.30
2018-06-30T12:08:29.590Z,3.40
2018-06-30T12:11:09.436Z,3.43
2018-06-30T12:13:38.215Z,2.63
2018-06-30T12:16:10.289Z,2.90
2018-06-30T12:18:38.844Z,3.20
2018-06-30T12:21:10.688Z,3.37
2018-06-30T12:23:39.256Z,2.77
2018-06-30T12:26:08.926Z,2.97
2018-06-30T12:28:37.860Z,36.70
2018-06-30T12:31:06.981Z,20.53
2018-06-30T12:33:35.573Z,3.40
2018-06-30T12:36:04.791Z,3.43
2018-06-30T12:38:33.653Z,3.20
2018-06-30T12:41:03.064Z,2.40
2018-06-30T12:43:31.621Z,2.77
2018-06-30T12:46:00.445Z,3.27
2018-06-30T12:48:29.017Z,3.50
2018-06-30T12:50:57.627Z,2.87
2018-06-30T12:53:26.461Z,2.73
2018-06-30T12:55:55.028Z,2.90
2018-06-30T12:58:23.561Z,2.60
2018-06-30T13:00:52.385Z,2.20
2018-06-30T13:03:21.039Z,2.13
2018-06-30T13:05:49.713Z,2.30
2018-06-30T13:08:18.262Z,2.83
2018-06-30T13:10:47.135Z,3.10
2018-06-30T13:13:15.791Z,2.63
2018-06-30T13:15:44.627Z,2.77
2018-06-30T13:18:13.231Z,2.60
2018-06-30T13:20:42.092Z,3.00
2018-06-30T13:23:11.055Z,2.40
2018-06-30T13:25:39.611Z,2.77
2018-06-30T13:28:08.152Z,2.20
2018-06-30T13:30:36.939Z,5.65
2018-06-30T13:33:05.476Z,4.62
2018-06-30T13:35:33.951Z,2.83
2018-06-30T13:38:09.971Z,2.80
2018-06-30T13:40:38.709Z,2.27
2018-06-30T13:43:07.476Z,2.10
2018-06-30T13:45:35.966Z,4.20
2018-06-30T13:48:05.796Z,4.50
2018-06-30T13:50:34.619Z,3.47
2018-06-30T13:53:03.236Z,2.42
2018-06-30T13:55:31.867Z,2.25
2018-06-30T13:58:01.301Z,3.70
2018-06-30T14:00:30.116Z,2.45
2018-06-30T14:02:59.215Z,2.67
2018-06-30T14:05:28.212Z,2.62
2018-06-30T14:07:57.026Z,2.52
2018-06-30T14:10:25.747Z,2.60
2018-06-30T14:13:01.668Z,7.37
2018-06-30T14:15:30.407Z,5.20
2018-06-30T14:18:09.951Z,6.85
2018-06-30T14:20:38.723Z,4.85
2018-06-30T14:23:07.267Z,3.40
2018-06-30T14:25:36.057Z,2.67
2018-06-30T14:28:06.763Z,2.75
2018-06-30T14:30:41.495Z,3.70
2018-06-30T14:33:10.412Z,3.33
2018-06-30T14:38:19.268Z,2.95
2018-06-30T14:40:50.937Z,2.90
2018-06-30T14:43:19.691Z,2.65
2018-06-30T14:45:48.691Z,3.10
2018-06-30T14:48:17.707Z,3.00
2018-06-30T14:50:57.355Z,3.10
2018-06-30T14:53:26.393Z,2.92
2018-06-30T14:55:55.335Z,2.67
2018-06-30T14:58:23.957Z,2.30
2018-06-30T15:00:52.925Z,2.87
2018-06-30T15:03:22.889Z,3.25
2018-06-30T15:05:51.700Z,3.08
2018-06-30T15:08:20.989Z,3.02
2018-06-30T15:10:50.035Z,2.40
2018-06-30T15:13:29.520Z,2.90
2018-06-30T15:15:58.494Z,3.30
2018-06-30T15:18:27.104Z,3.00
2018-06-30T15:20:56.005Z,3.05
2018-06-30T15:23:31.377Z,3.90
2018-06-30T15:26:00.163Z,2.85
2018-06-30T15:28:30.678Z,3.20
2018-06-30T15:30:59.808Z,2.85
2018-06-30T15:33:28.511Z,3.55
2018-06-30T15:36:03.276Z,3.20
2018-06-30T15:38:32.267Z,4.00
2018-06-30T15:41:01.482Z,4.33
2018-06-30T15:43:30.141Z,4.20
2018-06-30T15:45:58.805Z,4.35
2018-06-30T15:48:32.691Z,5.80
2018-06-30T15:51:01.922Z,4.90
2018-06-30T15:53:30.704Z,5.20
2018-06-30T15:55:59.253Z,4.13
2018-06-30T15:58:27.819Z,4.60
2018-06-30T16:00:56.384Z,4.30
2018-06-30T16:03:30.993Z,6.00
2018-06-30T16:05:59.625Z,8.93
2018-06-30T16:08:28.853Z,7.77
2018-06-30T16:11:01.055Z,11.47
2018-06-30T16:13:29.568Z,7.03
2018-06-30T16:15:58.155Z,5.60
2018-06-30T16:18:27.052Z,5.43
2018-06-30T16:20:55.758Z,6.97
2018-06-30T16:23:25.348Z,11.00
2018-06-30T16:25:54.302Z,7.90
2018-06-30T16:28:22.863Z,7.17
2018-06-30T16:30:58.568Z,7.33
2018-06-30T16:33:27.178Z,6.40
2018-06-30T16:35:55.728Z,6.53
2018-06-30T16:38:24.923Z,5.63
2018-06-30T16:40:53.449Z,5.53
2018-06-30T16:43:22.404Z,5.90
2018-06-30T16:45:51.026Z,6.80
2018-06-30T16:48:19.632Z,9.67
2018-06-30T16:50:48.425Z,8.70
2018-06-30T16:53:21.952Z,5.30
2018-06-30T16:55:50.501Z,6.40
2018-06-30T16:58:24.684Z,6.50
2018-06-30T17:00:53.224Z,7.03
2018-06-30T17:03:22.011Z,7.67
2018-06-30T17:05:50.569Z,7.47
2018-06-30T17:08:20.040Z,6.63
2018-06-30T17:10:48.564Z,5.03
2018-06-30T17:13:17.142Z,3.90
2018-06-30T17:15:47.173Z,4.30
2018-06-30T17:18:15.809Z,4.40
2018-06-30T17:20:44.513Z,3.77
2018-06-30T17:23:13.452Z,4.00
2018-06-30T17:25:42.032Z,4.00
2018-06-30T17:28:15.561Z,4.70
2018-06-30T17:30:44.418Z,4.60
2018-06-30T17:33:12.948Z,4.10
2018-06-30T17:35:41.449Z,3.40
2018-06-30T17:38:12.156Z,5.20
2018-06-30T17:40:40.681Z,6.50
2018-06-30T17:43:09.213Z,4.83
2018-06-30T17:45:38.001Z,4.30
2018-06-30T17:48:06.653Z,3.83
2018-06-30T17:50:35.165Z,3.73
2018-06-30T17:53:10.372Z,3.90
2018-06-30T17:55:39.672Z,3.47
2018-06-30T17:58:12.868Z,4.00
2018-06-30T18:00:42.218Z,3.53
2018-06-30T18:03:14.180Z,6.00
2018-06-30T18:05:52.768Z,5.40
2018-06-30T18:08:22.109Z,4.00
2018-06-30T18:10:50.828Z,7.23
2018-06-30T18:13:19.517Z,4.30
2018-06-30T18:15:51.842Z,3.50
2018-06-30T18:18:20.479Z,4.07
2018-06-30T18:20:49.648Z,3.97
2018-06-30T18:23:21.222Z,9.27
2018-06-30T18:25:49.968Z,8.23
2018-06-30T18:28:18.746Z,13.40
2018-06-30T18:30:47.926Z,6.63
2018-06-30T18:33:16.934Z,5.23
2018-06-30T18:35:47.543Z,4.80
2018-06-30T18:38:16.694Z,3.50
2018-06-30T18:40:45.796Z,4.40
2018-06-30T18:43:14.431Z,3.80
2018-06-30T18:45:43.692Z,4.33
2018-06-30T18:48:12.615Z,5.20
2018-06-30T18:50:47.572Z,3.10
2018-06-30T18:53:16.759Z,6.60
2018-06-30T18:55:45.577Z,3.10
2018-06-30T18:58:14.964Z,3.87
2018-06-30T19:00:45.055Z,4.60
2018-06-30T19:03:13.854Z,3.10
2018-06-30T19:05:42.533Z,2.97
2018-06-30T19:08:13.977Z,2.47
2018-06-30T19:10:43.746Z,2.67
2018-06-30T19:13:12.873Z,2.70
2018-06-30T19:15:43.316Z,2.63
2018-06-30T19:18:12.265Z,2.43
2018-06-30T19:23:27.096Z,2.37
2018-06-30T19:25:56.004Z,2.60
2018-06-30T19:28:30.986Z,2.13
2018-06-30T19:30:59.688Z,1.57
2018-06-30T19:33:28.539Z,1.60
2018-06-30T19:35:57.833Z,1.40
2018-06-30T19:38:27.285Z,1.53
2018-06-30T19:40:56.506Z,2.17
2018-06-30T19:43:29.578Z,1.93
2018-06-30T19:45:58.605Z,1.90
2018-06-30T19:48:27.902Z,0.97
2018-06-30T19:50:56.494Z,1.60
2018-06-30T19:53:29.006Z,1.40
2018-06-30T19:55:58.242Z,1.70
2018-06-30T19:58:27.146Z,1.37
2018-06-30T20:00:55.997Z,1.10
2018-06-30T20:03:31.595Z,1.27
2018-06-30T20:06:00.149Z,1.50
2018-06-30T20:08:31.236Z,1.80
2018-06-30T20:10:59.781Z,2.23
2018-06-30T20:13:28.339Z,2.37
2018-06-30T20:15:57.115Z,7.87
2018-06-30T20:18:29.107Z,2.23
2018-06-30T20:20:57.675Z,2.03
2018-06-30T20:26:00.116Z,1.83
2018-06-30T20:28:29.115Z,3.17
2018-06-30T20:30:57.874Z,3.40
2018-06-30T20:33:26.786Z,3.00
2018-06-30T20:35:55.756Z,6.13
2018-06-30T20:38:24.341Z,22.40
2018-06-30T20:40:52.920Z,47.07
2018-06-30T20:43:22.133Z,25.00
2018-06-30T20:45:50.715Z,35.03
2018-06-30T20:48:19.356Z,15.37
2018-06-30T20:50:48.562Z,34.50
2018-06-30T20:53:20.425Z,24.80
2018-06-30T20:55:55.241Z,20.63
2018-06-30T20:58:23.833Z,10.60
2018-06-30T21:00:52.492Z,21.03
2018-06-30T21:03:22.515Z,3.30
2018-06-30T21:05:51.073Z,5.33
2018-06-30T21:08:19.941Z,3.57
2018-06-30T21:10:48.520Z,4.50
2018-06-30T21:13:17.076Z,5.10
2018-06-30T21:15:45.629Z,3.77
2018-06-30T21:18:14.567Z,2.97
2018-06-30T21:20:43.265Z,4.00
2018-06-30T21:23:11.767Z,3.03
2018-06-30T21:25:42.802Z,5.60
2018-06-30T21:28:11.384Z,2.57
2018-06-30T21:30:44.402Z,3.30
2018-06-30T21:33:12.920Z,2.80
2018-06-30T21:35:41.470Z,1.70
2018-06-30T21:40:51.496Z,2.90
2018-06-30T21:43:20.023Z,3.83
2018-06-30T21:45:49.020Z,2.90
2018-06-30T21:48:23.390Z,1.77
2018-06-30T21:50:52.332Z,1.87
2018-06-30T21:53:20.868Z,4.13
2018-06-30T21:55:49.480Z,5.07
2018-06-30T21:58:22.212Z,2.80
2018-06-30T22:00:56.141Z,1.93
2018-06-30T22:03:27.012Z,2.63
2018-06-30T22:05:57.283Z,3.60
2018-06-30T22:08:26.416Z,2.93
2018-06-30T22:10:55.552Z,2.00
2018-06-30T22:13:24.437Z,1.93
2018-06-30T22:15:53.145Z,3.03
2018-06-30T22:18:21.807Z,2.00
2018-06-30T22:20:52.764Z,2.60
2018-06-30T22:23:21.330Z,2.17
2018-06-30T22:25:49.895Z,2.20
2018-06-30T22:28:18.928Z,1.73
2018-06-30T22:30:47.575Z,2.40
2018-06-30T22:33:16.128Z,3.63
2018-06-30T22:35:44.931Z,4.27
2018-06-30T22:38:19.625Z,2.87
2018-06-30T22:40:48.272Z,1.90
2018-06-30T22:43:17.188Z,2.20
2018-06-30T22:45:45.689Z,2.87
2018-06-30T22:48:14.259Z,1.50
2018-06-30T22:50:43.106Z,1.50
2018-06-30T22:53:11.643Z,1.30
2018-06-30T22:55:40.246Z,1.47
2018-06-30T22:58:09.308Z,2.00
2018-06-30T23:00:37.977Z,1.53
2018-06-30T23:03:12.677Z,1.37
2018-06-30T23:05:42.240Z,2.07
2018-06-30T23:08:10.940Z,1.80
2018-06-30T23:10:39.545Z,1.30
2018-06-30T23:13:08.086Z,1.50
2018-06-30T23:15:37.048Z,2.33
2018-06-30T23:18:05.633Z,1.33
2018-06-30T23:20:44.794Z,1.47
2018-06-30T23:23:13.360Z,1.53
2018-06-30T23:25:42.175Z,1.20
2018-06-30T23:28:13.104Z,1.10
2018-06-30T23:30:42.542Z,1.03
2018-06-30T23:33:17.050Z,1.00
2018-06-30T23:35:45.562Z,1.00
2018-06-30T23:38:16.207Z,1.27
2018-06-30T23:40:45.143Z,1.27
2018-06-30T23:43:18.507Z,0.90
2018-06-30T23:45:47.047Z,0.80
2018-06-30T23:48:15.971Z,1.10
2018-06-30T23:50:44.519Z,1.60
2018-06-30T23:53:13.015Z,1.10
2018-06-30T23:55:48.511Z,1.00
2018-06-30T23:58:17.027Z,2.47
